Time;durP1;ratioP1;P1;durP2;ratioP2;P2;SDS_P1;SDS_P2;PMS_P1;PMS_P2;Temp;Humidity;BMP_temperature;BMP_pressure;BME280_temperature;BME280_humidity;BME280_pressure;Samples;Min_cycle;Max_cycle;Signal;HPM_P1;HPM_P2
2021/09/03 00:03:25;;;;;;;0.10;0.10;;;;;;;11.27;93.77;102569.00;10507851;28;20117;-62
2021/09/03 00:08:26;;;;;;;0.00;0.00;;;;;;;11.14;94.80;102577.13;10533208;28;20024;-62
2021/09/03 00:13:27;;;;;;;0.10;0.10;;;;;;;11.04;95.43;102563.63;10532709;28;20522;-62
2021/09/03 00:18:27;;;;;;;0.10;0.10;;;;;;;10.99;95.54;102555.13;10532925;28;20107;-61
2021/09/03 00:23:28;;;;;;;0.10;0.10;;;;;;;10.90;95.29;102547.84;10531008;28;20020;-61
2021/09/03 00:28:28;;;;;;;0.10;0.10;;;;;;;10.82;95.46;102548.47;10530642;28;20019;-61
2021/09/03 00:33:28;;;;;;;0.10;0.10;;;;;;;10.73;94.85;102550.97;10532137;28;20047;-62
2021/09/03 00:38:29;;;;;;;0.10;0.10;;;;;;;10.62;95.17;102538.50;10524204;28;20024;-61
2021/09/03 00:43:29;;;;;;;0.10;0.10;;;;;;;10.55;95.46;102524.78;10523868;28;20751;-61
2021/09/03 00:48:30;;;;;;;0.00;0.00;;;;;;;10.54;96.37;102528.41;10514075;28;20024;-62
2021/09/03 00:53:32;;;;;;;0.05;0.05;;;;;;;10.53;96.60;102526.72;10532273;28;20485;-60
2021/09/03 00:58:32;;;;;;;0.10;0.10;;;;;;;10.50;96.82;102524.31;10536485;28;20020;-62
2021/09/03 01:03:33;;;;;;;0.10;0.10;;;;;;;10.55;97.48;102523.94;10539795;28;20012;-61
2021/09/03 01:08:33;;;;;;;0.10;0.10;;;;;;;10.61;97.96;102524.31;10537652;28;20107;-61
2021/09/03 01:13:33;;;;;;;0.10;0.10;;;;;;;10.65;98.13;102511.63;10539680;28;20265;-61
2021/09/03 01:18:34;;;;;;;0.10;0.10;;;;;;;10.67;98.00;102512.31;10535773;28;20035;-61
2021/09/03 01:23:34;;;;;;;0.00;0.00;;;;;;;10.68;98.17;102499.88;10535502;28;20542;-61
2021/09/03 01:28:34;;;;;;;0.07;0.07;;;;;;;10.71;98.26;102497.81;10537995;28;20115;-62
2021/09/03 01:33:35;;;;;;;0.00;0.00;;;;;;;10.71;98.22;102491.63;10538422;28;20287;-62
2021/09/03 01:38:37;;;;;;;0.10;0.10;;;;;;;10.65;97.59;102488.47;10535754;28;20265;-62
2021/09/03 01:43:37;;;;;;;0.00;0.00;;;;;;;10.63;98.24;102485.06;10538200;28;20398;-62
2021/09/03 01:48:38;;;;;;;0.10;0.10;;;;;;;10.58;97.99;102475.72;10538375;28;20494;-61
2021/09/03 01:53:38;;;;;;;0.03;0.03;;;;;;;10.57;98.32;102476.72;10502269;28;20021;-62
2021/09/03 01:58:38;;;;;;;0.00;0.00;;;;;;;10.62;98.60;102479.88;10532321;28;20035;-62
2021/09/03 02:03:39;;;;;;;0.10;0.10;;;;;;;10.73;98.95;102476.34;10536083;28;20032;-62
2021/09/03 02:08:39;;;;;;;0.03;0.03;;;;;;;10.83;99.39;102474.69;10537732;28;20028;-61
2021/09/03 02:13:40;;;;;;;0.05;0.05;;;;;;;10.98;99.41;102461.94;10537023;28;20028;-62
2021/09/03 02:18:40;;;;;;;0.10;0.10;;;;;;;11.07;99.12;102451.38;10537390;28;20024;-61
2021/09/03 02:23:41;;;;;;;0.10;0.10;;;;;;;11.17;99.01;102451.53;10533833;28;20142;-61
2021/09/03 02:28:41;;;;;;;0.10;0.10;;;;;;;11.27;98.85;102462.28;10533015;28;20038;-62
2021/09/03 02:33:43;;;;;;;0.00;0.00;;;;;;;11.38;99.01;102451.59;10536301;28;20020;-62
2021/09/03 02:38:44;;;;;;;0.10;0.10;;;;;;;11.52;99.01;102446.00;10522377;28;20270;-62
2021/09/03 02:43:44;;;;;;;0.10;0.10;;;;;;;11.68;98.76;102434.88;10535929;28;20023;-62
2021/09/03 02:48:45;;;;;;;0.00;0.00;;;;;;;11.82;98.36;102435.56;10535857;28;20027;-61
2021/09/03 02:53:45;;;;;;;0.10;0.10;;;;;;;11.91;98.37;102433.00;10535505;28;20016;-61
2021/09/03 02:58:45;;;;;;;0.10;0.10;;;;;;;12.00;97.93;102437.56;10530069;28;20016;-62
2021/09/03 03:03:46;;;;;;;0.10;0.10;;;;;;;12.09;97.76;102429.75;10525844;28;20016;-61
2021/09/03 03:08:46;;;;;;;0.05;0.05;;;;;;;12.17;97.60;102430.78;10533684;28;20028;-61
2021/09/03 03:13:48;;;;;;;0.10;0.10;;;;;;;12.26;97.37;102425.66;10533886;28;20047;-62
2021/09/03 03:18:49;;;;;;;0.10;0.10;;;;;;;12.29;97.07;102412.03;10533480;28;20020;-62
2021/09/03 03:23:49;;;;;;;0.10;0.10;;;;;;;12.34;96.42;102412.50;10532705;28;20020;-62
2021/09/03 03:28:49;;;;;;;0.10;0.10;;;;;;;12.38;96.52;102406.72;10532879;28;20016;-62
2021/09/03 03:33:49;;;;;;;0.03;0.03;;;;;;;12.45;96.42;102407.06;10524288;28;20023;-62
2021/09/03 03:38:50;;;;;;;0.00;0.00;;;;;;;12.50;96.45;102396.81;10533812;28;20024;-62
2021/09/03 03:43:50;;;;;;;0.10;0.10;;;;;;;12.56;96.75;102393.59;10532274;28;20024;-61
2021/09/03 03:48:51;;;;;;;0.10;0.10;;;;;;;12.62;96.66;102387.75;10533559;28;20262;-62
2021/09/03 03:53:51;;;;;;;0.00;0.00;;;;;;;12.65;96.14;102382.13;10533202;28;20042;-62
2021/09/03 03:58:51;;;;;;;0.10;0.10;;;;;;;12.68;96.02;102373.81;10530250;28;20085;-61
2021/09/03 04:03:52;;;;;;;0.08;0.08;;;;;;;12.72;95.93;102371.72;10531778;28;20293;-62
2021/09/03 04:08:52;;;;;;;0.10;0.10;;;;;;;12.77;96.10;102360.59;10523595;28;20016;-62
2021/09/03 04:13:52;;;;;;;0.10;0.10;;;;;;;12.83;96.20;102363.59;10505302;28;20027;-62
2021/09/03 04:18:53;;;;;;;0.10;0.10;;;;;;;12.88;96.05;102360.50;10531302;28;20270;-62
2021/09/03 04:23:53;;;;;;;0.10;0.10;;;;;;;12.92;96.07;102356.59;10532504;28;20060;-62
2021/09/03 04:28:55;;;;;;;0.10;0.10;;;;;;;12.99;95.75;102357.72;10532631;28;20036;-61
2021/09/03 04:33:55;;;;;;;0.10;0.10;;;;;;;13.06;95.77;102356.19;10514123;28;20036;-62
2021/09/03 04:38:55;;;;;;;0.10;0.10;;;;;;;13.10;95.53;102352.25;10490795;28;20031;-62
2021/09/03 04:43:56;;;;;;;0.10;0.10;;;;;;;13.14;95.36;102344.78;10497981;28;20025;-61
2021/09/03 04:48:56;;;;;;;0.00;0.00;;;;;;;13.20;94.96;102346.06;10513562;28;20016;-62
2021/09/03 04:53:57;;;;;;;0.10;0.10;;;;;;;13.24;95.26;102344.81;10493156;28;20399;-62
2021/09/03 04:58:57;;;;;;;0.10;0.10;;;;;;;13.28;95.19;102333.69;10531490;28;20028;-62
2021/09/03 05:03:57;;;;;;;0.10;0.10;;;;;;;13.34;95.03;102340.31;10511993;28;20054;-62
2021/09/03 05:08:58;;;;;;;0.17;0.17;;;;;;;13.39;94.72;102343.44;10532707;28;20274;-63
2021/09/03 05:13:58;;;;;;;0.10;0.10;;;;;;;13.45;94.72;102340.19;10530779;28;20050;-63
2021/09/03 05:18:58;;;;;;;0.00;0.00;;;;;;;13.52;94.92;102340.47;10531146;28;20471;-61
2021/09/03 05:23:59;;;;;;;0.10;0.10;;;;;;;13.58;94.88;102340.75;10522781;28;20501;-63
2021/09/03 05:28:59;;;;;;;0.10;0.10;;;;;;;13.66;94.39;102344.53;10511652;28;20028;-63
2021/09/03 05:33:59;;;;;;;0.10;0.10;;;;;;;13.73;94.06;102338.50;10530347;28;20597;-62
2021/09/03 05:39:00;;;;;;;0.10;0.10;;;;;;;13.81;93.85;102337.75;10530977;28;20103;-62
2021/09/03 05:44:00;;;;;;;0.08;0.08;;;;;;;13.91;94.02;102338.59;10537625;28;20030;-63
2021/09/03 05:49:01;;;;;;;0.10;0.10;;;;;;;14.01;93.87;102338.56;10537169;28;20020;-62
2021/09/03 05:54:07;;;;;;;0.10;0.10;;;;;;;14.12;93.74;102335.72;10537529;28;20027;-63
2021/09/03 05:59:07;;;;;;;0.10;0.10;;;;;;;14.24;93.16;102329.19;10534524;22;20505;-64
2021/09/03 06:04:08;;;;;;;0.10;0.10;;;;;;;14.33;92.90;102332.81;10539777;28;20024;-63
2021/09/03 06:09:08;;;;;;;0.10;0.10;;;;;;;14.41;92.08;102327.56;10540605;28;20016;-63
2021/09/03 06:14:08;;;;;;;0.10;0.10;;;;;;;14.53;92.08;102328.25;10539215;28;20035;-63
2021/09/03 06:19:09;;;;;;;0.10;0.10;;;;;;;14.60;91.16;102317.78;10539554;28;20081;-63
2021/09/03 06:29:38;;;;;;;0.10;0.10;;;;;;;14.76;91.02;102317.97;10539003;28;20039;-64
2021/09/03 06:34:42;;;;;;;0.10;0.10;;;;;;;14.83;90.64;102308.31;10539461;28;20091;-63
2021/09/03 06:39:43;;;;;;;0.10;0.10;;;;;;;14.88;90.39;102311.41;10539391;28;20256;-63
2021/09/03 06:44:44;;;;;;;0.10;0.10;;;;;;;14.96;90.07;102317.84;10538285;28;20025;-62
2021/09/03 06:49:45;;;;;;;0.10;0.10;;;;;;;15.01;89.78;102315.53;10520066;28;20024;-63
2021/09/03 06:54:45;;;;;;;0.10;0.10;;;;;;;15.05;89.92;102316.94;10536618;28;20111;-63
2021/09/03 06:59:45;;;;;;;0.10;0.10;;;;;;;15.09;89.43;102315.63;10537527;28;20375;-63
2021/09/03 07:04:46;;;;;;;0.10;0.10;;;;;;;15.15;88.47;102317.69;10537269;28;20111;-63
2021/09/03 07:09:46;;;;;;;0.00;0.00;;;;;;;15.20;87.73;102314.56;10538345;28;20077;-63
2021/09/03 07:14:46;;;;;;;0.10;0.10;;;;;;;15.31;87.75;102315.19;10537011;28;20030;-63
2021/09/03 07:19:47;;;;;;;0.10;0.10;;;;;;;15.35;87.02;102313.84;10537681;28;20024;-63
2021/09/03 07:24:47;;;;;;;0.10;0.10;;;;;;;15.49;86.03;102307.09;10536538;28;20028;-63
2021/09/03 07:29:47;;;;;;;0.10;0.10;;;;;;;15.65;84.30;102309.09;10536717;28;20031;-63
2021/09/03 07:34:48;;;;;;;0.10;0.10;;;;;;;15.89;84.19;102310.28;10536483;28;20031;-63
2021/09/03 07:39:48;;;;;;;0.10;0.10;;;;;;;16.06;81.63;102304.03;10536912;28;20035;-63
2021/09/03 07:44:48;;;;;;;0.10;0.10;;;;;;;16.25;80.52;102298.38;10535857;28;20028;-63
2021/09/03 07:49:49;;;;;;;0.00;0.00;;;;;;;16.85;79.49;102305.53;10535947;28;20028;-63
2021/09/03 07:54:49;;;;;;;0.10;0.10;;;;;;;17.54;77.25;102306.13;10535721;28;20413;-63
2021/09/03 07:59:50;;;;;;;0.10;0.10;;;;;;;17.56;76.02;102306.78;10535758;28;20019;-64
2021/09/03 08:04:52;;;;;;;0.00;0.00;;;;;;;17.57;76.00;102311.16;10534915;28;20024;-61
2021/09/03 08:09:52;;;;;;;0.05;0.05;;;;;;;17.78;75.50;102304.44;10535130;28;20031;-63
2021/09/03 08:14:52;;;;;;;0.10;0.10;;;;;;;18.03;74.52;102306.06;10516702;28;20111;-63
2021/09/03 08:19:53;;;;;;;0.10;0.10;;;;;;;17.88;73.60;102299.69;10535061;28;20024;-64
2021/09/03 08:24:54;;;;;;;0.00;0.00;;;;;;;18.14;75.18;102301.31;10535275;28;20031;-64
2021/09/03 08:29:54;;;;;;;0.10;0.10;;;;;;;18.35;73.98;102296.19;10534684;28;20024;-64
2021/09/03 08:34:54;;;;;;;0.00;0.00;;;;;;;19.47;69.81;102290.44;10534457;28;20020;-63
2021/09/03 08:39:55;;;;;;;0.10;0.10;;;;;;;19.55;68.35;102288.53;10534379;28;20024;-63
2021/09/03 08:44:59;;;;;;;0.10;0.10;;;;;;;19.89;67.05;102285.31;10534281;28;20024;-63
2021/09/03 08:49:59;;;;;;;0.10;0.10;;;;;;;20.23;66.45;102292.03;10534751;28;20016;-64
2021/09/03 08:55:00;;;;;;;0.00;0.00;;;;;;;20.13;66.01;102286.94;10534161;28;20020;-63
2021/09/03 09:00:09;;;;;;;0.10;0.10;;;;;;;20.64;66.54;102279.88;10533894;28;20405;-63
2021/09/03 09:05:10;;;;;;;0.10;0.10;;;;;;;20.47;67.39;102282.78;10533751;28;20426;-62
2021/09/03 09:10:10;;;;;;;0.10;0.10;;;;;;;20.18;65.91;102283.63;10534269;28;20054;-62
2021/09/03 09:15:12;;;;;;;0.00;0.00;;;;;;;20.77;64.10;102282.75;10535159;28;20479;-63
2021/09/03 09:20:14;;;;;;;0.08;0.08;;;;;;;21.20;61.94;102277.34;10541903;28;20058;-64
2021/09/03 09:25:29;;;;;;;0.10;0.10;;;;;;;21.35;62.82;102278.13;10523203;28;20068;-60
2021/09/03 09:30:29;;;;;;;0.10;0.10;;;;;;;21.63;64.03;102275.44;10541218;28;20094;-62
2021/09/03 09:35:30;;;;;;;0.00;0.00;;;;;;;21.24;63.04;102274.06;10540779;28;20020;-64
2021/09/03 09:40:42;;;;;;;0.10;0.10;;;;;;;20.69;62.66;102275.56;10541063;28;20035;-63
2021/09/03 09:45:42;;;;;;;0.00;0.00;;;;;;;20.30;65.49;102275.88;10540881;28;20515;-62
2021/09/03 09:50:43;;;;;;;0.10;0.10;;;;;;;20.23;66.06;102265.00;10540963;28;20024;-63
2021/09/03 09:55:44;;;;;;;0.10;0.10;;;;;;;20.53;65.91;102270.38;10540363;28;20052;-63
2021/09/03 10:00:45;;;;;;;0.05;0.05;;;;;;;21.06;67.62;102265.56;10540247;28;20758;-64
2021/09/03 10:05:46;;;;;;;0.10;0.10;;;;;;;21.02;64.76;102261.53;10540004;28;20024;-64
2021/09/03 10:10:47;;;;;;;0.00;0.00;;;;;;;21.74;64.21;102263.19;10540368;28;20027;-64
2021/09/03 10:15:48;;;;;;;0.10;0.10;;;;;;;21.62;62.93;102257.50;10540567;28;20030;-64
2021/09/03 10:20:48;;;;;;;0.10;0.10;;;;;;;20.94;63.32;102257.09;10540029;28;20016;-65
2021/09/03 10:25:52;;;;;;;0.00;0.00;;;;;;;20.32;65.07;102253.03;10539734;28;20361;-64
2021/09/03 10:31:18;;;;;;;0.10;0.10;;;;;;;20.06;65.80;102252.69;10540562;28;20020;-65
2021/09/03 10:36:57;;;;;;;0.10;0.10;;;;;;;20.93;65.09;102247.28;10540279;28;20108;-64
2021/09/03 10:41:57;;;;;;;0.00;0.00;;;;;;;21.21;64.77;102246.50;10539318;28;20019;-62
2021/09/03 10:46:58;;;;;;;0.10;0.10;;;;;;;21.14;65.26;102246.44;10538937;28;20020;-61
2021/09/03 10:52:10;;;;;;;0.10;0.10;;;;;;;21.15;66.62;102245.41;10538381;28;20024;-62
2021/09/03 10:57:15;;;;;;;0.00;0.00;;;;;;;21.13;63.51;102233.94;10538822;28;20057;-61
2021/09/03 11:02:26;;;;;;;0.00;0.00;;;;;;;20.90;64.13;102219.75;10537822;28;20028;-64
2021/09/03 11:07:44;;;;;;;0.10;0.10;;;;;;;20.98;64.76;102225.88;10537623;28;20028;-64
2021/09/03 11:12:51;;;;;;;0.00;0.00;;;;;;;20.83;65.27;102226.97;10538182;28;20043;-64
2021/09/03 11:17:52;;;;;;;0.00;0.00;;;;;;;21.52;63.90;102221.75;10537108;28;20503;-65
2021/09/03 11:23:06;;;;;;;0.10;0.10;;;;;;;21.99;60.86;102219.31;10537106;28;20032;-62
2021/09/03 11:28:06;;;;;;;0.10;0.10;;;;;;;22.21;62.26;102220.91;10538191;28;20367;-65
2021/09/03 11:33:06;;;;;;;0.10;0.10;;;;;;;22.02;61.60;102225.19;10536653;28;20101;-63
2021/09/03 11:38:13;;;;;;;0.05;0.05;;;;;;;21.88;61.77;102215.31;10536287;28;20035;-65
2021/09/03 11:43:19;;;;;;;0.03;0.03;;;;;;;21.72;62.76;102215.63;10517957;28;20107;-63
2021/09/03 11:48:19;;;;;;;0.00;0.00;;;;;;;21.54;62.28;102214.25;10536015;28;20036;-65
2021/09/03 11:53:24;;;;;;;0.10;0.10;;;;;;;21.50;63.01;102209.41;10536035;28;20023;-65
2021/09/03 11:58:25;;;;;;;0.00;0.00;;;;;;;21.15;62.62;102206.66;10535029;28;20106;-64
2021/09/03 12:03:28;;;;;;;0.10;0.10;;;;;;;20.58;64.55;102198.41;10541132;22;20044;-61
2021/09/03 12:08:35;;;;;;;0.10;0.10;;;;;;;20.42;64.41;102208.59;10500514;28;20024;-61
2021/09/03 12:13:40;;;;;;;0.10;0.10;;;;;;;20.15;65.33;102205.56;10506601;28;20028;-63
2021/09/03 12:18:43;;;;;;;0.00;0.00;;;;;;;20.12;65.91;102197.84;10531376;28;20024;-62
2021/09/03 12:23:44;;;;;;;;;;;;;;;20.18;66.82;102202.47;10523476;28;20230;-62
2021/09/03 12:28:55;;;;;;;0.08;0.08;;;;;;;20.24;66.52;102206.31;10511582;28;19935;-63
2021/09/03 12:34:07;;;;;;;0.05;0.05;;;;;;;20.13;67.77;102202.22;10535896;28;20012;-63
2021/09/03 12:39:09;;;;;;;0.10;0.10;;;;;;;19.85;66.59;102197.50;10532723;28;20031;-63
2021/09/03 12:44:24;;;;;;;0.10;0.10;;;;;;;19.61;66.96;102213.97;10532453;28;20050;-62
2021/09/03 12:49:26;;;;;;;0.10;0.10;;;;;;;19.35;68.09;102201.72;10533585;28;20103;-63
2021/09/03 12:54:27;;;;;;;0.03;0.03;;;;;;;19.28;68.87;102200.75;10505730;28;20016;-63
2021/09/03 12:59:28;;;;;;;0.00;0.00;;;;;;;19.57;69.19;102196.44;10523014;28;20122;-63
2021/09/03 13:04:28;;;;;;;0.10;0.10;;;;;;;19.84;67.52;102195.00;10512209;28;20107;-63
2021/09/03 13:09:30;;;;;;;0.10;0.10;;;;;;;19.75;68.43;102193.38;10540279;28;20028;-63
2021/09/03 13:14:31;;;;;;;0.10;0.10;;;;;;;19.47;68.83;102190.47;10518853;28;20261;-63
2021/09/03 13:19:31;;;;;;;0.10;0.10;;;;;;;19.27;70.25;102187.47;10530690;28;20031;-61
2021/09/03 13:24:31;;;;;;;0.10;0.10;;;;;;;19.29;69.10;102183.56;10527968;28;20016;-63
2021/09/03 13:29:32;;;;;;;0.10;0.10;;;;;;;19.40;70.58;102177.69;10521948;28;20028;-62
2021/09/03 13:34:32;;;;;;;0.03;0.03;;;;;;;19.40;70.07;102183.09;10536597;28;20024;-61
2021/09/03 13:39:32;;;;;;;0.10;0.10;;;;;;;19.26;69.94;102174.97;10539269;28;20030;-63
2021/09/03 13:44:33;;;;;;;0.00;0.00;;;;;;;19.20;69.53;102168.44;10536573;28;20429;-64
2021/09/03 13:49:33;;;;;;;0.10;0.10;;;;;;;19.11;70.67;102161.44;10536234;28;20028;-63
2021/09/03 13:54:34;;;;;;;0.10;0.10;;;;;;;19.03;70.92;102150.72;10538897;28;20023;-63
2021/09/03 13:59:34;;;;;;;0.07;0.07;;;;;;;18.98;70.80;102145.84;10534636;28;20520;-63
2021/09/03 14:04:34;;;;;;;0.10;0.10;;;;;;;19.03;71.46;102150.72;10536599;28;20281;-63
2021/09/03 14:09:37;;;;;;;0.10;0.10;;;;;;;19.17;70.58;102139.94;10506277;28;20022;-63
2021/09/03 14:14:38;;;;;;;0.10;0.10;;;;;;;19.16;70.28;102137.41;10515658;28;20031;-61
2021/09/03 14:19:40;;;;;;;0.00;0.00;;;;;;;19.38;70.11;102143.78;10503128;28;20074;-63
2021/09/03 14:24:40;;;;;;;0.10;0.10;;;;;;;19.34;69.25;102135.19;10491035;28;20025;-62
2021/09/03 14:29:41;;;;;;;0.00;0.00;;;;;;;19.29;69.34;102140.34;10495740;28;20169;-64
2021/09/03 14:34:43;;;;;;;0.00;0.00;;;;;;;19.16;70.11;102132.00;10523987;28;20382;-62
2021/09/03 14:39:43;;;;;;;0.00;0.00;;;;;;;18.92;70.96;102135.78;10533524;28;20513;-63
2021/09/03 14:44:43;;;;;;;0.00;0.00;;;;;;;18.64;71.17;102132.78;10534841;28;20020;-62
2021/09/03 14:49:44;;;;;;;0.00;0.00;;;;;;;18.32;72.26;102137.38;10533467;28;20568;-63
2021/09/03 14:54:44;;;;;;;0.00;0.00;;;;;;;18.21;73.02;102129.69;10507461;28;20111;-62
2021/09/03 14:59:44;;;;;;;0.10;0.10;;;;;;;18.19;72.94;102120.97;10497212;28;20038;-61
2021/09/03 15:04:45;;;;;;;0.00;0.00;;;;;;;18.07;73.19;102125.94;10533834;28;20020;-63
2021/09/03 15:09:45;;;;;;;0.10;0.10;;;;;;;17.90;73.92;102125.16;10517979;28;20024;-63
2021/09/03 15:14:46;;;;;;;0.00;0.00;;;;;;;17.88;74.05;102114.53;10532050;28;20540;-63
2021/09/03 15:19:46;;;;;;;0.05;0.05;;;;;;;17.76;73.97;102091.66;10535541;28;20020;-62
2021/09/03 15:24:46;;;;;;;0.10;0.10;;;;;;;17.61;73.92;102098.81;10533380;28;20024;-62
2021/09/03 15:29:47;;;;;;;0.10;0.10;;;;;;;17.41;75.00;102104.59;10522350;28;20024;-61
2021/09/03 15:34:47;;;;;;;0.00;0.00;;;;;;;17.35;76.61;102104.47;10527404;28;20023;-63
2021/09/03 15:39:47;;;;;;;0.10;0.10;;;;;;;17.34;75.61;102108.19;10522663;28;20021;-62
2021/09/03 15:44:48;;;;;;;0.00;0.00;;;;;;;17.29;76.22;102105.16;10502635;28;20462;-68
2021/09/03 15:49:48;;;;;;;0.10;0.10;;;;;;;17.19;76.10;102110.72;10495187;28;20391;-62
2021/09/03 15:54:49;;;;;;;0.10;0.10;;;;;;;17.05;76.16;102095.28;10533704;28;20378;-64
2021/09/03 15:59:49;;;;;;;0.10;0.10;;;;;;;16.95;77.71;102096.28;10533702;28;20386;-64
2021/09/03 16:04:49;;;;;;;0.10;0.10;;;;;;;16.88;77.12;102089.91;10523184;28;20015;-65
2021/09/03 16:09:50;;;;;;;0.10;0.10;;;;;;;16.73;77.32;102095.13;10503014;28;20028;-63
2021/09/03 16:14:50;;;;;;;0.00;0.00;;;;;;;16.63;78.13;102083.66;10496484;28;20023;-64
2021/09/03 16:19:51;;;;;;;0.10;0.10;;;;;;;16.54;78.73;102087.38;10523325;28;20618;-63
2021/09/03 16:24:51;;;;;;;0.00;0.00;;;;;;;16.56;79.40;102076.47;10530653;28;20278;-62
2021/09/03 16:29:52;;;;;;;0.00;0.00;;;;;;;16.66;79.63;102072.56;10533269;28;20093;-63
2021/09/03 16:34:52;;;;;;;0.10;0.10;;;;;;;16.67;77.98;102078.81;10533633;28;20063;-62
2021/09/03 16:39:52;;;;;;;0.10;0.10;;;;;;;16.48;77.83;102082.66;10516634;28;20766;-63
2021/09/03 16:44:53;;;;;;;0.00;0.00;;;;;;;16.21;78.76;102081.13;10534448;28;20020;-64
2021/09/03 16:49:53;;;;;;;0.10;0.10;;;;;;;15.94;79.07;102075.03;10535143;28;20036;-61
2021/09/03 16:54:53;;;;;;;0.10;0.10;;;;;;;15.88;80.44;102069.47;10551204;28;20274;-63
2021/09/03 16:59:55;;;;;;;0.10;0.10;;;;;;;15.93;81.01;102069.81;10534680;28;20293;-63
2021/09/03 17:04:55;;;;;;;0.10;0.10;;;;;;;16.02;80.92;102063.44;10534312;28;20043;-63
2021/09/03 17:09:56;;;;;;;0.07;0.07;;;;;;;16.02;80.39;102060.75;10533924;28;20024;-64
2021/09/03 17:14:56;;;;;;;0.10;0.10;;;;;;;15.96;80.30;102069.47;10532404;28;20028;-63
2021/09/03 17:20:20;;;;;;;0.10;0.10;;;;;;;15.81;80.77;102071.97;10532241;28;20024;-63
2021/09/03 17:25:21;;;;;;;0.10;0.10;;;;;;;15.62;80.57;102073.06;10563070;28;20382;-63
2021/09/03 17:30:21;;;;;;;0.10;0.10;;;;;;;15.50;81.03;102077.84;10533323;28;20106;-63
2021/09/03 17:35:21;;;;;;;0.10;0.10;;;;;;;15.41;81.25;102081.50;10533022;28;20028;-63
2021/09/03 17:40:22;;;;;;;0.10;0.10;;;;;;;15.32;80.88;102074.41;10540987;28;20269;-64
2021/09/03 17:45:23;;;;;;;0.10;0.10;;;;;;;15.27;80.82;102082.09;10540375;28;20668;-64
2021/09/03 17:50:24;;;;;;;0.10;0.10;;;;;;;15.22;80.55;102079.91;10540907;28;20527;-63
2021/09/03 17:55:24;;;;;;;0.10;0.10;;;;;;;15.22;81.27;102079.06;10522164;28;20161;-62
2021/09/03 18:00:27;;;;;;;0.10;0.10;;;;;;;15.19;81.70;102071.34;10539823;28;20375;-62
2021/09/03 18:05:27;;;;;;;0.10;0.10;;;;;;;15.11;81.66;102066.75;10539544;28;20367;-62
2021/09/03 18:10:28;;;;;;;0.10;0.10;;;;;;;15.07;82.19;102078.81;10540256;28;20019;-62
2021/09/03 18:15:28;;;;;;;0.10;0.10;;;;;;;15.02;82.28;102068.53;10539130;28;20031;-62
2021/09/03 18:20:28;;;;;;;0.10;0.10;;;;;;;15.03;82.00;102074.75;10537798;28;20020;-61
2021/09/03 18:25:29;;;;;;;0.00;0.00;;;;;;;15.01;82.23;102061.50;10537250;28;20016;-63
2021/09/03 18:30:30;;;;;;;0.10;0.10;;;;;;;15.00;81.47;102077.75;10538066;28;20771;-63
2021/09/03 18:35:30;;;;;;;0.00;0.00;;;;;;;14.97;81.46;102072.69;10536975;28;20020;-62
2021/09/03 18:40:30;;;;;;;0.10;0.10;;;;;;;14.95;82.05;102075.53;10536062;28;20651;-63
2021/09/03 18:45:32;;;;;;;0.10;0.10;;;;;;;14.96;82.19;102076.38;10537785;28;20482;-62
2021/09/03 18:50:33;;;;;;;0.10;0.10;;;;;;;14.96;82.70;102065.66;10534245;28;20035;-63
2021/09/03 18:55:33;;;;;;;0.10;0.10;;;;;;;14.94;82.29;102063.13;10543242;28;20212;-61
2021/09/03 19:00:33;;;;;;;0.10;0.10;;;;;;;14.95;82.53;102064.78;10579718;28;20269;-62
2021/09/03 19:05:34;;;;;;;0.00;0.00;;;;;;;14.92;82.66;102068.66;10570101;28;20028;-62
2021/09/03 19:10:34;;;;;;;0.10;0.10;;;;;;;14.86;81.68;102066.56;10529274;28;20078;-63
2021/09/03 19:15:34;;;;;;;0.10;0.10;;;;;;;14.79;81.24;102078.09;10534856;28;20269;-62
2021/09/03 19:20:38;;;;;;;0.10;0.10;;;;;;;14.75;81.59;102087.44;10535954;28;20012;-62
2021/09/03 19:25:39;;;;;;;;;;;;;;;14.68;80.98;102089.91;10536419;28;20024;-61
2021/09/03 19:30:39;;;;;;;0.10;0.10;;;;;;;14.62;81.55;102090.53;10543884;28;19908;-62
2021/09/03 19:35:40;;;;;;;0.10;0.10;;;;;;;14.55;81.67;102093.00;10536059;28;20502;-61
2021/09/03 19:40:40;;;;;;;0.10;0.10;;;;;;;14.55;81.41;102100.22;10535822;28;20115;-61
2021/09/03 19:45:41;;;;;;;0.10;0.10;;;;;;;14.52;81.91;102105.88;10543060;28;20016;-62
2021/09/03 19:50:41;;;;;;;0.00;0.00;;;;;;;14.49;81.84;102107.00;10577317;28;20772;-61
2021/09/03 19:55:42;;;;;;;0.08;0.08;;;;;;;14.45;82.31;102101.06;10551123;28;20081;-61
2021/09/03 20:00:43;;;;;;;0.10;0.10;;;;;;;14.39;82.42;102098.19;10533142;28;20055;-61
2021/09/03 20:05:45;;;;;;;0.10;0.10;;;;;;;14.35;82.43;102104.84;10568020;28;20059;-63
2021/09/03 20:10:45;;;;;;;0.00;0.00;;;;;;;14.29;82.54;102110.81;10551247;28;20391;-63
2021/09/03 20:15:46;;;;;;;0.10;0.10;;;;;;;14.25;82.43;102113.81;10493984;28;20016;-63
2021/09/03 20:20:46;;;;;;;0.10;0.10;;;;;;;14.23;82.43;102117.63;10494210;28;20019;-63
2021/09/03 20:25:47;;;;;;;0.10;0.10;;;;;;;14.14;82.72;102110.50;10559219;28;20027;-62
2021/09/03 20:30:47;;;;;;;0.10;0.10;;;;;;;14.04;84.09;102121.25;10528737;28;20166;-65
2021/09/03 20:35:48;;;;;;;0.10;0.10;;;;;;;14.01;84.07;102116.22;10534579;28;20012;-62
2021/09/03 20:40:48;;;;;;;0.10;0.10;;;;;;;13.94;83.84;102110.63;10533587;28;20027;-64
2021/09/03 20:45:48;;;;;;;0.10;0.10;;;;;;;13.89;83.60;102115.56;10534338;28;20282;-63
2021/09/03 20:50:49;;;;;;;0.10;0.10;;;;;;;13.83;83.59;102116.19;10515700;28;20024;-63
2021/09/03 20:55:49;;;;;;;0.10;0.10;;;;;;;13.71;83.84;102118.22;10533477;28;20043;-61
2021/09/03 21:00:49;;;;;;;0.10;0.10;;;;;;;13.59;83.89;102114.88;10535441;28;20034;-62
2021/09/03 21:05:50;;;;;;;0.10;0.10;;;;;;;13.47;84.42;102112.53;10532894;28;20031;-61
2021/09/03 21:10:50;;;;;;;0.10;0.10;;;;;;;13.36;85.06;102113.56;10534941;28;20084;-63
2021/09/03 21:15:50;;;;;;;0.10;0.10;;;;;;;13.26;85.66;102118.94;10568465;28;20020;-63
2021/09/03 21:20:51;;;;;;;0.10;0.10;;;;;;;13.14;85.67;102112.88;10584124;28;20080;-63
2021/09/03 21:25:51;;;;;;;0.10;0.10;;;;;;;13.03;86.12;102113.06;10580859;28;20023;-61
2021/09/03 21:30:51;;;;;;;0.10;0.10;;;;;;;13.00;86.78;102124.06;10557007;28;20398;-61
2021/09/03 21:35:52;;;;;;;0.10;0.10;;;;;;;12.96;86.84;102117.28;10540832;28;20479;-61
2021/09/03 21:40:52;;;;;;;0.10;0.10;;;;;;;12.96;86.03;102114.59;10540842;28;20023;-61
2021/09/03 21:45:52;;;;;;;0.10;0.10;;;;;;;12.94;86.21;102116.56;10548570;28;20020;-62
2021/09/03 21:50:53;;;;;;;0.10;0.10;;;;;;;12.90;86.98;102109.84;10547886;28;20032;-61
2021/09/03 21:55:53;;;;;;;0.10;0.10;;;;;;;12.82;86.75;102121.22;10540059;28;20095;-61
2021/09/03 22:00:53;;;;;;;0.00;0.00;;;;;;;12.78;87.21;102116.31;10534988;28;20028;-63
2021/09/03 22:05:53;;;;;;;0.10;0.10;;;;;;;12.73;87.23;102108.72;10530912;28;20282;-62
2021/09/03 22:10:54;;;;;;;0.10;0.10;;;;;;;12.68;87.17;102111.84;10537530;28;20016;-62
2021/09/03 22:15:54;;;;;;;0.10;0.10;;;;;;;12.62;87.73;102117.75;10558642;28;20069;-63
2021/09/03 22:20:54;;;;;;;0.10;0.10;;;;;;;12.56;87.75;102117.44;10580845;28;20341;-62
2021/09/03 22:25:55;;;;;;;0.10;0.10;;;;;;;12.51;87.47;102117.88;10537741;28;20024;-63
2021/09/03 22:30:55;;;;;;;0.00;0.00;;;;;;;12.50;87.99;102104.66;10538062;28;20359;-62
2021/09/03 22:35:56;;;;;;;0.10;0.10;;;;;;;12.43;88.30;102099.03;10520127;28;20356;-62
2021/09/03 22:40:56;;;;;;;0.10;0.10;;;;;;;12.33;88.78;102106.19;10538992;28;20102;-63
2021/09/03 22:45:56;;;;;;;0.10;0.10;;;;;;;12.24;88.47;102107.88;10529585;28;20088;-63
2021/09/03 22:50:56;;;;;;;0.10;0.10;;;;;;;12.17;88.83;102104.91;10529640;28;20168;-62
2021/09/03 22:55:57;;;;;;;0.10;0.10;;;;;;;12.09;89.37;102099.41;10537470;28;20028;-63
2021/09/03 23:00:57;;;;;;;0.10;0.10;;;;;;;12.07;88.72;102105.88;10536146;28;20081;-62
2021/09/03 23:05:58;;;;;;;0.10;0.10;;;;;;;11.95;89.46;102089.97;10537671;28;20028;-62
2021/09/03 23:10:58;;;;;;;0.03;0.03;;;;;;;11.88;89.77;102088.84;10530938;28;20028;-63